NCAR-RAP Real-Time Weather Data

Output produced by METARs form (06 May 2021  15:58 UTC)
found at http://weather.rap.ucar.edu/surface/
 
KGLH 061553Z 08003KT 10SM CLR 22/11 A3020 RMK AO2 SLP234 T02170106
KGLH 061453Z 10004KT 10SM CLR 20/11 A3021 RMK AO2 SLP235 T02000111 50004
KGLH 061353Z 11005KT 10SM CLR 18/12 A3022 RMK AO2 SLP238 T01830117
KGLH 061253Z 05003KT 10SM CLR 16/12 A3021 RMK AO2 SLP236 T01610117
KGLH 061153Z 01004KT 10SM CLR 13/11 A3020 RMK AO2 SLP232 T01280111 10139 20106 53014
KGLH 061053Z AUTO 00000KT 10SM CLR 12/11 A3016 RMK AO2 SLP218 T01170106
KGLH 060953Z AUTO 00000KT 10SM CLR 12/11 A3013 RMK AO2 SLP211 T01170106
KGLH 060853Z AUTO 00000KT 10SM CLR 13/11 A3015 RMK AO2 SLP216 T01280111 53005
KGLH 060753Z AUTO 34004KT 10SM CLR 12/11 A3014 RMK AO2 SLP214 T01220106
KGLH 060653Z AUTO 00000KT 10SM CLR 14/11 A3013 RMK AO2 SLP208 T01390111
KGLH 060553Z AUTO 00000KT 10SM CLR 14/12 A3014 RMK AO2 SLP211 T01390122 10211 20139 402280139 50001
KGLH 060453Z AUTO 00000KT 10SM CLR 14/12 A3014 RMK AO2 SLP213 T01440117
KGLH 060353Z AUTO 02005KT 10SM CLR 16/12 A3014 RMK AO2 SLP215 T01610117
KGLH 060253Z AUTO 02006KT 10SM CLR 17/12 A3013 RMK AO2 SLP211 T01720122 53017
KGLH 060153Z AUTO 01004KT 10SM CLR 17/12 A3011 RMK AO2 SLP202 T01720122